Time;durP1;ratioP1;P1;durP2;ratioP2;P2;SDS_P1;SDS_P2;PMS_P1;PMS_P2;Temp;Humidity;BMP_temperature;BMP_pressure;BME280_temperature;BME280_humidity;BME280_pressure;Samples;Min_cycle;Max_cycle;Signal;HPM_P1;HPM_P2
2023/03/29 00:02:47;;;;;;;1.65;0.50;;;;;;;18.62;43.45;101581.72;16111475;19;129658;-45
2023/03/29 00:08:13;;;;;;;0.80;0.20;;;;;;;18.60;43.67;101581.09;16111637;19;130981;-42
2023/03/29 00:13:35;;;;;;;1.23;0.30;;;;;;;18.57;43.33;101573.25;16109646;19;131512;-44
2023/03/29 00:18:57;;;;;;;0.73;0.30;;;;;;;18.55;43.45;101570.69;16110317;19;130264;-44
2023/03/29 00:24:20;;;;;;;1.30;0.30;;;;;;;18.53;43.21;101550.69;16114632;19;131669;-43
2023/03/29 00:29:42;;;;;;;0.32;0.30;;;;;;;18.51;43.30;101546.47;16110495;19;134081;-50
2023/03/29 00:35:05;;;;;;;0.73;0.25;;;;;;;18.50;43.50;101547.53;16107624;19;129366;-45
2023/03/29 00:40:27;;;;;;;0.70;0.13;;;;;;;18.48;43.34;101544.13;16107853;19;131402;-50
2023/03/29 00:45:48;;;;;;;0.50;0.25;;;;;;;18.45;43.40;101534.38;16114973;19;129896;-48
2023/03/29 00:51:13;;;;;;;0.20;0.10;;;;;;;18.45;43.52;101528.84;16119431;19;129756;-49
2023/03/29 00:56:38;;;;;;;0.60;0.22;;;;;;;18.43;43.65;101522.66;16123839;19;131152;-51
2023/03/29 01:02:02;;;;;;;;;;;;;;;18.37;43.89;101520.81;16126338;19;130538;-51
2023/03/29 01:07:29;;;;;;;1.25;0.20;;;;;;;18.38;43.59;101506.72;16119301;19;129741;-49
2023/03/29 01:13:03;;;;;;;0.70;0.20;;;;;;;18.36;43.90;101519.94;16121189;19;129735;-51
2023/03/29 01:18:25;;;;;;;0.65;0.20;;;;;;;18.34;43.78;101515.72;16118902;19;130224;-50
2023/03/29 01:24:08;;;;;;;0.65;0.30;;;;;;;18.34;43.98;101510.19;16121320;19;130571;-51
2023/03/29 01:29:47;;;;;;;0.55;0.20;;;;;;;18.32;43.51;101502.09;16119874;19;130294;-50
2023/03/29 01:35:09;;;;;;;0.57;0.30;;;;;;;18.28;43.65;101490.63;16116034;19;129877;-53
2023/03/29 01:40:32;;;;;;;1.55;0.30;;;;;;;18.28;43.90;101481.47;16117669;19;129793;-52
2023/03/29 01:46:01;;;;;;;0.00;0.00;;;;;;;18.27;43.87;101477.00;16115984;19;129454;-46
2023/03/29 01:52:00;;;;;;;0.20;0.10;;;;;;;18.25;43.60;101457.88;16119912;19;129831;-49
2023/03/29 01:57:24;;;;;;;0.57;0.20;;;;;;;18.23;43.95;101450.84;16112966;19;131442;-43
2023/03/29 02:02:48;;;;;;;0.45;0.20;;;;;;;18.22;43.96;101449.16;16115651;19;129631;-43
2023/03/29 02:08:14;;;;;;;0.70;0.20;;;;;;;18.21;43.97;101450.25;16116428;19;129810;-42
2023/03/29 02:13:36;;;;;;;0.65;0.20;;;;;;;18.19;43.51;101452.41;16118129;19;129522;-52
2023/03/29 02:18:58;;;;;;;2.45;0.20;;;;;;;18.18;43.75;101439.63;16111076;19;130541;-47
2023/03/29 02:24:23;;;;;;;0.10;0.10;;;;;;;18.17;43.63;101432.41;16119721;19;129630;-47
2023/03/29 02:29:46;;;;;;;0.30;0.20;;;;;;;18.17;43.67;101432.41;16111152;19;129912;-47
2023/03/29 02:35:20;;;;;;;0.30;0.20;;;;;;;18.17;43.91;101435.16;16115190;19;131333;-49
2023/03/29 02:40:42;;;;;;;0.38;0.20;;;;;;;18.15;43.73;101435.41;16115453;19;130563;-45
2023/03/29 02:46:06;;;;;;;0.47;0.20;;;;;;;18.12;43.96;101433.94;16112380;19;132340;-52
2023/03/29 02:51:33;;;;;;;0.15;0.10;;;;;;;18.11;44.01;101426.69;16114050;19;129996;-49
2023/03/29 02:57:01;;;;;;;0.52;0.20;;;;;;;18.09;43.65;101420.53;16117117;19;131067;-48
2023/03/29 03:02:26;;;;;;;0.08;0.08;;;;;;;18.08;44.03;101423.53;16114513;19;130703;-53
2023/03/29 03:07:48;;;;;;;0.10;0.10;;;;;;;18.06;43.72;101409.94;16108830;19;131048;-50
2023/03/29 03:13:11;;;;;;;0.85;0.30;;;;;;;18.05;43.60;101411.00;16115636;19;130223;-51
2023/03/29 03:18:33;;;;;;;0.00;0.00;;;;;;;18.04;43.63;101405.69;16111484;19;130513;-46
2023/03/29 03:23:55;;;;;;;0.20;0.10;;;;;;;18.03;43.67;101398.50;16112707;19;128990;-53
2023/03/29 03:29:17;;;;;;;0.17;0.17;;;;;;;18.02;43.69;101397.63;16109050;19;129929;-52
2023/03/29 03:34:39;;;;;;;0.10;0.10;;;;;;;18.00;43.67;101392.34;16113270;19;131165;-46
2023/03/29 03:40:07;;;;;;;0.15;0.10;;;;;;;18.00;43.68;101388.69;16110918;19;130353;-49
2023/03/29 03:45:30;;;;;;;0.50;0.10;;;;;;;17.99;43.58;101389.78;16109755;19;129844;-47
2023/03/29 03:50:54;;;;;;;0.85;0.30;;;;;;;17.98;43.87;101390.84;16110247;19;130012;-52
2023/03/29 03:56:16;;;;;;;0.38;0.20;;;;;;;17.97;43.53;101389.19;16110849;19;129709;-50
2023/03/29 04:01:42;;;;;;;0.52;0.20;;;;;;;17.95;43.64;101383.84;16110944;19;129948;-52
2023/03/29 04:07:04;;;;;;;0.40;0.20;;;;;;;17.93;43.68;101386.00;16110703;19;130803;-46
2023/03/29 04:12:26;;;;;;;1.40;0.10;;;;;;;17.94;43.66;101386.88;16108938;19;130927;-42
2023/03/29 04:17:48;;;;;;;0.55;0.20;;;;;;;17.92;43.77;101391.78;16111965;19;129331;-42
2023/03/29 04:23:10;;;;;;;0.15;0.05;;;;;;;17.91;43.88;101381.78;16119665;19;130035;-41
2023/03/29 04:28:32;;;;;;;0.20;0.20;;;;;;;17.90;43.60;101377.31;16124463;19;131304;-44
2023/03/29 04:33:54;;;;;;;0.10;0.10;;;;;;;17.88;43.99;101373.94;16128195;19;129603;-43
2023/03/29 04:39:18;;;;;;;0.20;0.20;;;;;;;17.89;43.77;101375.63;16122485;19;131328;-42
2023/03/29 04:44:41;;;;;;;0.20;0.15;;;;;;;17.87;44.01;101375.00;16122314;19;129250;-43
2023/03/29 04:50:03;;;;;;;0.30;0.10;;;;;;;17.85;43.60;101370.53;16124211;19;129864;-43
2023/03/29 04:55:26;;;;;;;0.10;0.10;;;;;;;17.84;43.97;101365.25;16125851;19;129852;-42
2023/03/29 05:00:48;;;;;;;0.38;0.28;;;;;;;17.84;43.57;101366.13;16124139;19;129786;-42
2023/03/29 05:06:10;;;;;;;0.17;0.17;;;;;;;17.84;44.04;101365.25;16122410;19;131054;-42
2023/03/29 05:11:33;;;;;;;0.17;0.10;;;;;;;18.07;44.26;101370.09;16121031;19;131712;-42
2023/03/29 05:16:55;;;;;;;4.20;0.60;;;;;;;18.39;43.35;101369.94;16119514;19;130330;-44
2023/03/29 05:22:17;;;;;;;0.90;0.20;;;;;;;18.73;43.06;101370.28;16120790;19;131330;-43
2023/03/29 05:27:39;;;;;;;2.33;0.30;;;;;;;19.06;42.78;101363.41;16121423;19;130073;-41
2023/03/29 05:33:01;;;;;;;2.67;0.22;;;;;;;19.25;42.64;101357.78;16120377;19;129655;-41
2023/03/29 05:38:23;;;;;;;1.27;0.40;;;;;;;19.33;42.49;101371.28;16120036;19;129793;-45
2023/03/29 05:43:45;;;;;;;2.97;0.40;;;;;;;19.36;41.99;101372.75;16117749;19;129515;-45
2023/03/29 05:49:07;;;;;;;0.85;0.35;;;;;;;19.32;42.23;101377.91;16121325;19;129650;-46
2023/03/29 05:54:29;;;;;;;3.10;0.43;;;;;;;19.25;42.44;101371.63;16119002;19;130349;-42
2023/03/29 05:59:52;;;;;;;2.05;0.30;;;;;;;19.16;42.42;101360.00;16115466;19;130346;-42
2023/03/29 06:05:14;;;;;;;1.35;0.25;;;;;;;19.08;42.63;101368.69;16115655;19;130434;-46
2023/03/29 06:10:36;;;;;;;1.42;0.30;;;;;;;18.99;42.77;101361.81;16108192;19;130618;-43
2023/03/29 06:15:59;;;;;;;4.38;0.40;;;;;;;18.89;42.92;101360.44;16126837;19;130034;-51
2023/03/29 06:21:22;;;;;;;4.47;0.38;;;;;;;18.82;42.72;101353.34;16121545;19;129448;-49
2023/03/29 06:26:45;;;;;;;0.70;0.30;;;;;;;18.73;43.05;101350.88;16121380;19;130404;-46
2023/03/29 06:32:07;;;;;;;3.60;0.52;;;;;;;18.66;43.05;101361.25;16118700;19;130094;-46
2023/03/29 06:37:30;;;;;;;1.40;0.30;;;;;;;18.58;42.71;101361.59;16119149;19;130057;-45
2023/03/29 06:42:56;;;;;;;3.05;0.85;;;;;;;18.55;43.29;101362.88;16113747;19;131499;-51
2023/03/29 06:48:18;;;;;;;3.85;0.50;;;;;;;18.62;43.05;101365.56;16121475;19;129535;-54
2023/03/29 06:53:40;;;;;;;1.10;0.30;;;;;;;18.77;42.80;101374.28;16117567;19;130807;-49
2023/03/29 06:59:02;;;;;;;1.48;0.30;;;;;;;18.94;42.71;101387.50;16120780;19;131156;-48
2023/03/29 07:04:24;;;;;;;8.90;0.65;;;;;;;19.10;42.68;101379.53;16114489;19;129506;-46
2023/03/29 07:09:52;;;;;;;1.80;0.47;;;;;;;19.20;42.28;101385.38;16114470;19;129483;-45
2023/03/29 07:15:15;;;;;;;2.10;0.43;;;;;;;19.29;42.16;101400.59;16117657;19;129502;-47
2023/03/29 07:20:41;;;;;;;3.30;0.60;;;;;;;19.34;42.19;101397.94;16118779;19;129295;-48
2023/03/29 07:26:06;;;;;;;4.80;0.60;;;;;;;19.38;41.60;101404.69;16114415;19;129549;-49
2023/03/29 07:31:28;;;;;;;1.75;0.40;;;;;;;19.36;41.81;101395.78;16116762;19;131007;-49
2023/03/29 07:36:50;;;;;;;4.68;0.65;;;;;;;19.32;41.98;101405.66;16115668;19;129484;-46
2023/03/29 07:42:12;;;;;;;1.98;0.60;;;;;;;19.25;41.58;101409.66;16119149;19;131567;-51
2023/03/29 07:47:34;;;;;;;1.80;0.65;;;;;;;19.18;41.76;101413.31;16114778;19;129386;-47
2023/03/29 07:52:56;;;;;;;2.05;0.63;;;;;;;19.12;41.80;101410.66;16113358;19;129719;-48
2023/03/29 07:58:18;;;;;;;1.40;0.70;;;;;;;19.04;41.99;101423.78;16113613;19;130012;-48
2023/03/29 08:03:41;;;;;;;2.63;0.47;;;;;;;18.98;41.86;101415.56;16113674;19;129418;-51
2023/03/29 08:09:03;;;;;;;1.05;0.50;;;;;;;18.92;42.19;101426.50;16112609;19;130720;-52
2023/03/29 08:14:25;;;;;;;3.97;0.70;;;;;;;18.99;42.01;101429.19;16113740;19;128867;-49
2023/03/29 08:19:47;;;;;;;7.22;0.52;;;;;;;19.15;41.38;101412.97;16115494;19;129573;-46
2023/03/29 08:25:12;;;;;;;1.55;0.40;;;;;;;19.34;41.48;101410.97;16113048;19;129537;-47
2023/03/29 08:30:35;;;;;;;3.10;0.60;;;;;;;19.54;40.87;101407.84;16111708;19;129604;-47
2023/03/29 08:35:56;;;;;;;2.83;0.65;;;;;;;19.75;40.46;101409.19;16111008;19;129685;-52
2023/03/29 08:41:34;;;;;;;3.67;1.20;;;;;;;19.93;40.54;101399.00;16110752;19;129841;-50
2023/03/29 08:47:06;;;;;;;1.92;0.95;;;;;;;20.04;40.21;101389.00;16105420;19;130920;-46
2023/03/29 08:52:36;;;;;;;3.85;0.80;;;;;;;20.05;39.52;101396.25;16082408;19;129732;-49
2023/03/29 08:58:01;;;;;;;6.60;0.95;;;;;;;20.03;39.88;101398.44;16088487;19;129815;-49
2023/03/29 09:03:27;;;;;;;2.60;0.80;;;;;;;19.99;39.87;101387.81;16090323;19;130492;-42
2023/03/29 09:08:52;;;;;;;3.25;0.90;;;;;;;19.93;39.75;101382.34;16098006;19;130230;-41
2023/03/29 09:14:24;;;;;;;3.45;1.45;;;;;;;19.84;39.86;101401.31;16104191;19;131461;-40
2023/03/29 09:20:02;;;;;;;3.42;0.70;;;;;;;19.76;39.63;101387.81;16105028;19;130386;-44
2023/03/29 09:25:35;;;;;;;4.53;0.70;;;;;;;19.64;40.22;101385.88;16102070;19;129883;-45
2023/03/29 09:31:21;;;;;;;3.33;0.63;;;;;;;19.56;39.96;101393.72;16104199;19;130754;-44
2023/03/29 09:37:06;;;;;;;2.47;0.85;;;;;;;19.48;40.33;101389.38;16107449;19;130648;-43
2023/03/29 09:42:30;;;;;;;1.95;0.70;;;;;;;19.40;40.26;101385.03;16114802;19;130395;-44
2023/03/29 09:48:07;;;;;;;1.42;0.80;;;;;;;19.35;40.28;101377.44;16102192;19;130490;-44
2023/03/29 09:53:30;;;;;;;2.67;1.15;;;;;;;19.28;40.35;101393.34;16113146;19;130956;-45
2023/03/29 09:58:52;;;;;;;1.95;0.70;;;;;;;19.22;40.57;101391.53;16116980;19;130998;-42
2023/03/29 10:04:17;;;;;;;1.67;0.80;;;;;;;19.17;40.60;101383.91;16117246;19;134316;-41
2023/03/29 10:09:42;;;;;;;2.60;0.75;;;;;;;19.14;40.28;101370.50;16121151;19;129410;-43
2023/03/29 10:15:05;;;;;;;2.45;0.80;;;;;;;19.10;40.61;101360.13;16119552;19;129366;-41
2023/03/29 10:20:36;;;;;;;4.43;0.90;;;;;;;19.09;40.37;101359.28;16119006;19;131043;-41
2023/03/29 10:26:03;;;;;;;1.63;0.60;;;;;;;19.08;40.52;101361.22;16116779;19;129694;-41
2023/03/29 10:31:30;;;;;;;1.30;0.60;;;;;;;19.07;40.64;101353.13;16120484;19;131616;-40
2023/03/29 10:36:59;;;;;;;3.22;0.85;;;;;;;19.07;40.39;101340.13;16119027;19;129576;-42
2023/03/29 10:42:24;;;;;;;5.20;0.75;;;;;;;19.06;40.40;101346.75;16120595;19;128930;-42
2023/03/29 10:47:47;;;;;;;2.50;0.90;;;;;;;19.05;39.90;101339.53;16118309;19;129896;-41
2023/03/29 10:53:31;;;;;;;6.82;1.17;;;;;;;19.06;40.17;101335.66;16112836;19;130085;-41
2023/03/29 10:59:21;;;;;;;3.10;1.02;;;;;;;19.05;39.69;101333.97;16117165;19;129602;-43
2023/03/29 11:04:51;;;;;;;4.78;1.10;;;;;;;19.02;39.69;101331.69;16116931;19;132634;-40
2023/03/29 11:10:34;;;;;;;2.80;0.90;;;;;;;19.04;39.72;101326.75;16115991;19;129670;-42
2023/03/29 11:15:58;;;;;;;2.75;1.00;;;;;;;19.03;39.72;101308.41;16115614;19;130424;-41
2023/03/29 11:21:20;;;;;;;8.15;1.52;;;;;;;19.00;39.78;101313.59;16116964;19;130757;-41
2023/03/29 11:27:27;;;;;;;8.88;1.38;;;;;;;18.98;39.64;101322.13;16115278;19;134406;-41
2023/03/29 11:33:10;;;;;;;2.40;1.10;;;;;;;18.97;39.85;101303.81;16113298;19;131355;-43
2023/03/29 11:38:39;;;;;;;3.15;0.98;;;;;;;18.95;39.89;101303.22;16114303;19;130133;-44
2023/03/29 11:44:21;;;;;;;4.25;0.90;;;;;;;18.96;39.60;101306.84;16114242;19;131558;-41
2023/03/29 11:49:56;;;;;;;5.30;0.90;;;;;;;18.96;39.39;101302.13;16115121;19;130737;-44
2023/03/29 11:55:24;;;;;;;4.03;0.93;;;;;;;18.95;39.39;101308.78;16112837;19;130714;-43
2023/03/29 12:00:55;;;;;;;6.57;1.27;;;;;;;18.94;39.38;101314.53;16111770;19;129719;-43
2023/03/29 12:06:28;;;;;;;2.60;1.08;;;;;;;18.96;39.30;101309.59;16111416;19;130823;-41
2023/03/29 12:11:58;;;;;;;5.53;0.98;;;;;;;18.97;39.64;101287.16;16110658;19;130780;-41
2023/03/29 12:17:27;;;;;;;4.80;0.90;;;;;;;18.99;39.45;101276.69;16114032;19;129816;-40
2023/03/29 12:22:50;;;;;;;2.30;0.80;;;;;;;19.00;39.85;101275.59;16111962;19;129435;-45
2023/03/29 12:29:04;;;;;;;2.85;0.75;;;;;;;19.04;39.57;101254.66;16113962;19;130054;-43
2023/03/29 12:34:54;;;;;;;2.90;1.00;;;;;;;19.06;39.52;101234.97;16106867;19;129729;-47
2023/03/29 12:40:19;;;;;;;5.00;0.88;;;;;;;19.05;39.68;101217.50;16107938;19;130901;-42
2023/03/29 12:45:47;;;;;;;1.53;0.63;;;;;;;19.05;39.49;101228.59;16126094;19;130814;-43
2023/03/29 12:51:22;;;;;;;1.58;0.75;;;;;;;19.06;39.89;101223.88;16126552;19;129721;-42
2023/03/29 12:56:50;;;;;;;2.57;0.80;;;;;;;19.04;39.86;101218.59;16123890;19;130400;-43
2023/03/29 13:02:12;;;;;;;5.55;0.88;;;;;;;19.00;39.62;101214.59;16124981;19;130486;-41
2023/03/29 13:07:46;;;;;;;5.40;0.75;;;;;;;18.98;39.64;101194.59;16123685;19;129624;-45
2023/03/29 13:13:16;;;;;;;2.22;0.85;;;;;;;18.97;39.39;101187.34;16124433;19;130047;-42
2023/03/29 13:19:11;;;;;;;2.80;0.75;;;;;;;18.96;39.36;101174.56;16124124;19;129951;-42
2023/03/29 13:25:04;;;;;;;1.55;0.63;;;;;;;18.96;39.57;101163.50;16123431;19;129232;-43
2023/03/29 13:30:44;;;;;;;3.90;0.77;;;;;;;18.94;39.45;101164.81;16124341;19;131056;-42
2023/03/29 13:36:19;;;;;;;3.60;0.80;;;;;;;18.93;39.54;101166.78;16124195;19;129524;-41
2023/03/29 13:41:41;;;;;;;3.87;0.90;;;;;;;18.93;39.83;101166.78;16122485;19;129480;-44
2023/03/29 13:47:31;;;;;;;6.40;0.90;;;;;;;18.94;39.27;101157.38;16121216;19;129732;-42
2023/03/29 13:53:02;;;;;;;2.80;1.17;;;;;;;18.90;39.61;101157.00;16123140;19;130159;-44
2023/03/29 13:58:34;;;;;;;5.15;1.17;;;;;;;18.88;39.34;101145.31;16123124;19;129720;-41
2023/03/29 14:03:57;;;;;;;3.08;0.82;;;;;;;18.85;39.25;101137.47;16119851;19;129712;-43
2023/03/29 14:09:27;;;;;;;3.30;0.90;;;;;;;18.85;39.33;101131.09;16121824;19;129902;-41
2023/03/29 14:15:02;;;;;;;7.63;1.10;;;;;;;18.84;39.46;101121.94;16117325;19;130916;-44
2023/03/29 14:20:24;;;;;;;4.97;0.90;;;;;;;18.83;39.37;101113.88;16118905;19;129480;-41
2023/03/29 14:25:46;;;;;;;3.22;0.93;;;;;;;18.82;39.72;101107.47;16120076;19;129770;-42
2023/03/29 14:31:16;;;;;;;9.90;1.05;;;;;;;18.82;39.89;101087.25;16116969;19;129923;-41
2023/03/29 14:36:39;;;;;;;7.28;0.80;;;;;;;18.81;39.47;101088.31;16117362;19;129279;-41
2023/03/29 14:42:01;;;;;;;3.53;0.93;;;;;;;18.81;39.84;101085.56;16121466;19;130295;-41
2023/03/29 14:47:28;;;;;;;3.03;1.00;;;;;;;18.81;39.80;101071.69;16118571;19;129109;-42
2023/03/29 14:52:50;;;;;;;1.73;0.55;;;;;;;18.80;40.11;101097.72;16119143;19;130509;-42
2023/03/29 14:58:18;;;;;;;3.10;0.70;;;;;;;18.82;39.76;101095.56;16116297;19;130904;-41
2023/03/29 15:03:43;;;;;;;3.67;0.70;;;;;;;18.81;39.77;101074.47;16115953;19;129546;-49
2023/03/29 15:09:06;;;;;;;3.93;1.00;;;;;;;18.86;39.92;101072.66;16116773;19;134573;-43
2023/03/29 15:14:34;;;;;;;2.33;0.80;;;;;;;18.94;39.95;101046.47;16117051;19;129733;-46
2023/03/29 15:20:11;;;;;;;1.55;0.73;;;;;;;18.99;40.08;101035.47;16117097;19;130785;-42
2023/03/29 15:25:36;;;;;;;3.33;1.00;;;;;;;18.99;40.27;101029.94;16113228;19;129655;-44
2023/03/29 15:31:01;;;;;;;8.30;0.90;;;;;;;18.98;40.28;101017.16;16116018;19;129749;-43
2023/03/29 15:36:26;;;;;;;6.82;1.17;;;;;;;18.94;40.23;101004.88;16113559;19;130624;-42
2023/03/29 15:41:49;;;;;;;5.75;1.58;;;;;;;;;;16109803;19;130881;-44
2023/03/29 15:47:12;;;;;;;5.72;0.90;;;;;;;18.88;39.98;100986.47;16112277;19;129825;-48
2023/03/29 15:52:34;;;;;;;4.72;0.90;;;;;;;18.86;40.45;100986.72;16115290;19;129743;-43
2023/03/29 15:57:56;;;;;;;3.67;1.30;;;;;;;18.85;40.13;100976.72;16113569;19;129700;-43
2023/03/29 16:03:21;;;;;;;4.15;1.25;;;;;;;18.83;40.11;100966.97;16114174;19;129858;-43
2023/03/29 16:08:43;;;;;;;9.02;2.17;;;;;;;18.81;40.45;100956.09;16113397;19;130847;-45
2023/03/29 16:14:26;;;;;;;6.55;2.30;;;;;;;18.80;40.54;100943.34;16111071;19;129983;-43
2023/03/29 16:19:48;;;;;;;5.93;1.98;;;;;;;18.77;40.59;100939.13;16123306;19;130726;-42
2023/03/29 16:25:16;;;;;;;11.55;3.10;;;;;;;18.77;40.62;100916.97;16126159;19;130401;-43
2023/03/29 16:30:38;;;;;;;13.75;3.72;;;;;;;18.73;40.56;100932.41;16126623;19;131681;-43
2023/03/29 16:36:00;;;;;;;8.80;2.88;;;;;;;18.74;40.58;100928.53;16121944;19;132199;-44
2023/03/29 16:41:23;;;;;;;8.90;2.92;;;;;;;18.90;40.64;100926.06;16128641;19;129114;-46
2023/03/29 16:46:45;;;;;;;9.13;2.72;;;;;;;19.28;40.39;100907.94;16126176;19;130366;-43
2023/03/29 16:52:07;;;;;;;6.97;2.15;;;;;;;19.75;39.72;100903.13;16126349;19;129726;-43
2023/03/29 16:57:29;;;;;;;11.65;2.58;;;;;;;20.09;39.36;100887.25;16124043;19;129464;-44
2023/03/29 17:02:51;;;;;;;12.98;2.45;;;;;;;20.29;39.11;100892.25;16122005;19;129550;-44
2023/03/29 17:08:13;;;;;;;14.10;2.28;;;;;;;20.35;38.91;100886.72;16119336;19;130043;-45
2023/03/29 17:13:36;;;;;;;12.63;2.35;;;;;;;20.33;38.96;100886.16;16108820;19;131747;-46
2023/03/29 17:19:01;;;;;;;11.10;2.47;;;;;;;20.27;38.97;100893.56;16125081;19;129696;-42
2023/03/29 17:24:23;;;;;;;11.25;2.28;;;;;;;20.17;38.92;100880.41;16124725;19;130535;-45
2023/03/29 17:29:45;;;;;;;11.02;2.80;;;;;;;20.08;38.99;100868.06;16124823;19;129497;-46
2023/03/29 17:35:09;;;;;;;9.23;2.42;;;;;;;19.97;39.24;100873.44;16126091;19;131413;-43
2023/03/29 17:40:30;;;;;;;8.15;2.40;;;;;;;19.86;39.45;100866.06;16126331;19;130383;-53
2023/03/29 17:45:54;;;;;;;11.00;2.50;;;;;;;19.77;39.14;100867.63;16123216;19;130895;-54
2023/03/29 17:51:18;;;;;;;7.45;2.05;;;;;;;19.66;39.67;100855.50;16124124;19;131906;-50
2023/03/29 17:56:40;;;;;;;5.18;1.90;;;;;;;19.55;39.77;100857.31;16125667;19;130192;-52
2023/03/29 18:02:04;;;;;;;9.88;2.33;;;;;;;19.48;39.57;100843.63;16123376;19;129180;-51
2023/03/29 18:07:30;;;;;;;7.15;1.88;;;;;;;19.46;39.41;100844.94;16122688;19;129214;-50
2023/03/29 18:12:52;;;;;;;5.28;1.80;;;;;;;19.42;39.88;100846.56;16122071;19;130760;-53
2023/03/29 18:18:14;;;;;;;7.88;2.00;;;;;;;19.41;39.90;100828.25;16119883;19;129360;-48
2023/03/29 18:23:41;;;;;;;6.65;1.63;;;;;;;19.41;39.52;100829.06;16118594;19;129072;-45
2023/03/29 18:29:03;;;;;;;8.13;1.90;;;;;;;19.43;39.70;100817.72;16124147;19;134600;-51
2023/03/29 18:34:25;;;;;;;7.15;1.73;;;;;;;19.56;39.34;100820.16;16120938;19;129742;-53
2023/03/29 18:39:47;;;;;;;7.38;2.28;;;;;;;19.80;39.38;100814.38;16113382;19;129604;-50
2023/03/29 18:45:09;;;;;;;6.20;1.48;;;;;;;20.06;39.29;100811.97;16118397;19;129361;-51
2023/03/29 18:50:31;;;;;;;27.40;2.78;;;;;;;20.26;39.46;100812.19;16114136;19;130440;-52
2023/03/29 18:55:54;;;;;;;14.05;1.77;;;;;;;20.44;38.95;100807.34;16118265;19;129559;-52
2023/03/29 19:01:16;;;;;;;13.65;2.08;;;;;;;20.57;38.62;100795.00;16121161;19;130102;-47
2023/03/29 19:06:41;;;;;;;27.15;2.30;;;;;;;20.70;38.72;100796.50;16118858;19;132458;-44
2023/03/29 19:12:03;;;;;;;8.90;2.47;;;;;;;20.82;38.67;100797.19;16102633;19;132113;-45
2023/03/29 19:17:26;;;;;;;15.57;2.33;;;;;;;20.92;38.56;100790.06;16113354;19;129909;-45
2023/03/29 19:22:48;;;;;;;26.73;2.33;;;;;;;20.98;38.24;100786.22;16105083;19;130610;-46
2023/03/29 19:28:10;;;;;;;6.50;1.75;;;;;;;20.97;38.29;100773.41;16105954;19;130248;-47
2023/03/29 19:33:32;;;;;;;9.48;1.88;;;;;;;20.95;38.26;100767.28;16113216;19;129452;-48
2023/03/29 19:38:55;;;;;;;10.15;1.33;;;;;;;20.94;38.14;100762.81;16109077;19;129527;-43
2023/03/29 19:44:18;;;;;;;8.50;1.67;;;;;;;20.89;38.21;100758.91;16113007;19;129759;-45
2023/03/29 19:49:40;;;;;;;10.70;1.65;;;;;;;20.85;38.27;100748.59;16110693;19;130863;-46
2023/03/29 19:55:03;;;;;;;17.50;2.08;;;;;;;20.81;38.25;100742.69;16107722;19;130311;-45
2023/03/29 20:00:25;;;;;;;12.07;2.13;;;;;;;20.79;38.77;100722.69;16108843;19;130111;-44
2023/03/29 20:05:47;;;;;;;17.65;2.13;;;;;;;20.78;38.70;100709.88;16113320;19;131647;-48
2023/03/29 20:11:10;;;;;;;11.38;2.05;;;;;;;20.75;38.56;100710.38;16111233;19;129875;-56
2023/03/29 20:16:34;;;;;;;29.77;2.30;;;;;;;20.68;39.02;100693.94;16110137;19;129743;-45
2023/03/29 20:21:56;;;;;;;20.55;2.25;;;;;;;20.65;39.13;100694.44;16114353;19;131147;-46
2023/03/29 20:27:20;;;;;;;19.65;1.90;;;;;;;20.62;39.25;100672.75;16110468;19;130192;-47
2023/03/29 20:32:42;;;;;;;22.70;2.28;;;;;;;20.54;39.23;100662.97;16108459;19;130467;-45
2023/03/29 20:38:04;;;;;;;11.35;2.28;;;;;;;20.45;39.41;100651.50;16105906;19;129966;-49
2023/03/29 20:43:25;;;;;;;11.07;1.92;;;;;;;20.37;39.56;100667.81;16101469;19;132744;-51
2023/03/29 20:48:53;;;;;;;10.82;1.65;;;;;;;20.31;39.50;100657.78;16109566;19;129782;-47
2023/03/29 20:54:17;;;;;;;7.93;1.92;;;;;;;20.23;39.38;100651.59;16108414;19;130953;-46
2023/03/29 20:59:40;;;;;;;14.25;1.95;;;;;;;20.18;39.83;100645.16;16108105;19;130777;-44
2023/03/29 21:05:02;;;;;;;7.07;1.50;;;;;;;20.10;39.79;100638.13;16121582;19;130764;-44
2023/03/29 21:10:26;;;;;;;11.57;1.73;;;;;;;20.04;39.87;100644.75;16125937;19;130310;-48
2023/03/29 21:15:48;;;;;;;8.60;1.88;;;;;;;19.96;39.75;100632.97;16123637;19;131210;-44
2023/03/29 21:21:11;;;;;;;12.63;2.03;;;;;;;19.90;39.86;100624.84;16123076;19;131039;-45
2023/03/29 21:26:33;;;;;;;7.95;1.30;;;;;;;19.82;39.74;100627.00;16124471;19;130157;-44
2023/03/29 21:31:55;;;;;;;9.52;1.50;;;;;;;19.78;39.49;100608.38;16120632;19;130912;-48
2023/03/29 21:37:17;;;;;;;5.43;1.50;;;;;;;19.72;39.81;100609.41;16120372;19;129121;-43
2023/03/29 21:42:39;;;;;;;5.30;1.25;;;;;;;19.66;39.70;100609.38;16125321;19;129775;-45
2023/03/29 21:48:01;;;;;;;6.72;1.25;;;;;;;19.60;39.89;100613.19;16122550;19;130426;-47
2023/03/29 21:53:23;;;;;;;4.53;1.10;;;;;;;19.55;39.78;100615.91;16122662;19;133732;-45
2023/03/29 21:58:45;;;;;;;5.10;1.00;;;;;;;19.49;40.04;100620.56;16121608;19;129693;-48
2023/03/29 22:04:07;;;;;;;3.90;1.00;;;;;;;19.44;39.69;100612.16;16119583;19;129443;-46
2023/03/29 22:09:31;;;;;;;6.65;1.08;;;;;;;19.42;40.09;100610.75;16118548;19;129684;-44
2023/03/29 22:14:53;;;;;;;1.80;0.90;;;;;;;19.37;39.82;100598.50;16116651;19;130791;-49
2023/03/29 22:20:17;;;;;;;2.05;0.80;;;;;;;19.33;39.62;100591.78;16119286;19;129490;-48
2023/03/29 22:25:38;;;;;;;5.72;1.42;;;;;;;19.30;39.95;100597.88;16115806;19;130635;-45
2023/03/29 22:31:02;;;;;;;4.07;1.27;;;;;;;19.27;39.92;100615.03;16120085;19;131123;-45
2023/03/29 22:36:30;;;;;;;3.88;1.10;;;;;;;19.25;40.02;100608.06;16117986;19;131467;-48
2023/03/29 22:41:51;;;;;;;1.77;0.63;;;;;;;19.22;39.73;100601.06;16113623;19;129324;-46
2023/03/29 22:47:14;;;;;;;1.95;0.90;;;;;;;19.18;39.82;100595.19;16115559;19;130022;-46
2023/03/29 22:52:35;;;;;;;2.70;0.75;;;;;;;19.16;39.83;100585.47;16110780;19;129829;-43
2023/03/29 22:57:57;;;;;;;4.95;0.90;;;;;;;19.14;40.13;100593.19;16112406;19;134039;-43
2023/03/29 23:03:21;;;;;;;2.75;0.85;;;;;;;19.12;39.65;100589.84;16115153;19;130898;-46
2023/03/29 23:08:43;;;;;;;4.60;1.05;;;;;;;19.08;39.80;100562.63;16109314;19;130462;-45
2023/03/29 23:14:06;;;;;;;4.47;0.95;;;;;;;19.06;39.77;100559.28;16116438;19;130569;-45
2023/03/29 23:19:28;;;;;;;2.08;0.65;;;;;;;19.04;39.76;100564.25;16115516;19;130037;-44
2023/03/29 23:24:50;;;;;;;1.25;0.70;;;;;;;19.01;39.86;100558.38;16111935;19;129962;-44
2023/03/29 23:30:11;;;;;;;4.28;0.93;;;;;;;19.00;39.96;100553.94;16112417;19;129527;-45
2023/03/29 23:35:33;;;;;;;2.33;0.55;;;;;;;18.97;39.71;100560.81;16111169;19;129693;-44
2023/03/29 23:40:59;;;;;;;2.05;0.60;;;;;;;18.94;39.90;100572.44;16110477;19;131091;-48
2023/03/29 23:46:22;;;;;;;2.88;0.70;;;;;;;18.95;39.80;100563.03;16109314;19;130856;-48
2023/03/29 23:51:47;;;;;;;1.38;0.63;;;;;;;18.91;39.90;100567.41;16110376;19;130790;-44
2023/03/29 23:57:09;;;;;;;3.63;0.80;;;;;;;18.91;39.91;100559.09;16112127;19;129605;-46
